CheckWX is a tool to help pilots better visualize weather data.  It is not intended as a substitute for an official pre-flight weather briefing.

02:06:11 UTC

KPEZ METAR
Pleasanton Municipal Airport
Pleasanton, Texas, USA
Current

31 mins ago

KPEZ 200135Z AUTO 14015G20KT 10SM CLR 32/21 A2991 RMK AO2 T03240214
Observed
Aug-20 @ 01:35 UTC
Wind
  • 140° at 15 KTS
  • Gusting to 20 KTS
Visibility
10 SM
Flight Rules
VFR
Cloud Levels
  • Clear skies
Temperature
32°C / 90°F
Dewpoint
21°C / 70°F
Heat Index
36°C / 96°F
Humidity
52%
Altimeter
29.91" Hg
Pressure
1012.92 hPa
Previous

1 hour ago

KPEZ 200055Z AUTO 14008G16KT 10SM CLR 34/20 A2990 RMK AO2 T03430203
Observed
Aug-20 @ 00:55 UTC
Wind
  • 140° at 8 KTS
  • Gusting to 16 KTS
Visibility
10 SM
Flight Rules
VFR
Cloud Levels
  • Clear skies
Temperature
34°C / 93°F
Dewpoint
20°C / 68°F
Heat Index
36°C / 97°F
Humidity
44%
Altimeter
29.9" Hg
Pressure
1012.52 hPa
Previous

2 hours ago

KPEZ 200035Z AUTO 14011G15KT 10SM CLR 35/20 A2989 RMK AO2 T03530202
Observed
Aug-20 @ 00:35 UTC
Wind
  • 140° at 11 KTS
  • Gusting to 15 KTS
Visibility
10 SM
Flight Rules
VFR
Cloud Levels
  • Clear skies
Temperature
35°C / 95°F
Dewpoint
20°C / 68°F
Heat Index
38°C / 100°F
Humidity
41%
Altimeter
29.89" Hg
Pressure
1012.22 hPa